Augusta Springs, Virginia
Current Conditions -  °F | °C
As of 7:35 PM on Wednesday 22 Oct 2014 (Local Time) from KW13 Reporting Station
Scattered Clouds Scattered Clouds  
Wind Chill: 46°   Ceiling: Unl
Heat Index: 50°   Visibility: 10mi
Dew Point: 40°   Wind: 8mph
Humidity: 71%   Direction: 320°NW
Pressure: 30.02"   Gusts: NA
Location:  38.1°N, 79.32°W
Report Text: KW13 222335Z AUTO 32007KT 10SM SCT036 SCT070 10/05 A3002 RMK AO1 T00980047
Loading
Personal Weather Stations






























Interactive Weather Map
Tropical Storm Tracking
New forecast layout! Learn more

10-Day Weather Forecast

Advertisements
Track Severe Weather on mobile